Weather reports worldwide

Advertisment
Grottaglie, Italy (16324): temperature & dewpoint: 09.12.2018 07:00:00 - 15.12.2018 07:00:00 (CET)Grottaglie, Italy (16324): wind speed: 09.12.2018 07:00:00 - 15.12.2018 07:00:00 (CET)Grottaglie, Italy (16324): wind direction: 09.12.2018 07:00:00 - 15.12.2018 07:00:00 (CET)Grottaglie, Italy (16324): visibility: 09.12.2018 07:00:00 - 15.12.2018 07:00:00 (CET)
Date & Time tt [°C] td [°C] ff [km/h] ff [kn] dd vv [km]
15.12.2018 07:00:00 - - - - - -
15.12.2018 06:00:00 - - - - - -
15.12.2018 05:00:00 - - - - - -
15.12.2018 04:00:00 - - - - - -
15.12.2018 03:00:00 - - - - - -
15.12.2018 02:00:00 - - - - - -
15.12.2018 01:00:00 - - - - - -
15.12.2018 00:00:00 - - - - - -
14.12.2018 23:00:00 - - - - - -
14.12.2018 22:00:00 - - - - - -
14.12.2018 21:00:00 - - - - - -
14.12.2018 20:00:00 14,0 13,0 5 3 SE 10
14.12.2018 19:00:00 14,0 14,0 8 4 S 10
14.12.2018 18:00:00 14,0 13,0 8 4 SSE 10
14.12.2018 17:00:00 15,0 13,0 9 5 SSE 10
14.12.2018 16:00:00 16,0 14,0 9 5 S 10
14.12.2018 15:00:00 16,0 13,0 18 10 S 10
14.12.2018 14:00:00 16,0 13,0 18 10 S 10
14.12.2018 13:00:00 16,0 12,0 21 11 S 10
14.12.2018 12:00:00 17,0 13,0 18 10 SSE 10
14.12.2018 11:00:00 16,0 13,0 18 10 S 10
14.12.2018 10:00:00 16,0 14,0 15 8 S 10
14.12.2018 09:00:00 14,0 13,0 5 3 SE 10
14.12.2018 08:00:00 12,0 12,0 8 4 ESE 10
14.12.2018 07:00:00 - - - - - -
14.12.2018 06:00:00 - - - - - -
14.12.2018 05:00:00 - - - - - -
14.12.2018 04:00:00 - - - - - -
14.12.2018 03:00:00 - - - - - -
14.12.2018 02:00:00 - - - - - -
14.12.2018 01:00:00 - - - - - -
14.12.2018 00:00:00 - - - - - -
13.12.2018 23:00:00 - - - - - -
13.12.2018 22:00:00 - - - - - -
13.12.2018 21:00:00 - - - - - -
13.12.2018 20:00:00 9,0 9,0 0 0 N 10
13.12.2018 19:00:00 10,0 10,0 5 3 - 10
13.12.2018 18:00:00 10,0 10,0 5 3 - 10
13.12.2018 17:00:00 11,0 10,0 15 8 SE 10
13.12.2018 16:00:00 11,0 10,0 9 5 E 10
13.12.2018 15:00:00 11,0 9,0 16 9 SE 10
13.12.2018 14:00:00 11,0 10,0 16 9 SE 10
13.12.2018 13:00:00 10,0 9,0 22 12 SE 9
13.12.2018 12:00:00 10,0 9,0 11 6 SE 9
13.12.2018 11:00:00 11,0 8,0 13 7 SE 10
13.12.2018 10:00:00 9,0 8,0 9 5 SE 10
13.12.2018 09:00:00 9,0 7,0 11 6 SE 10
13.12.2018 08:00:00 8,0 7,0 5 3 - 10
13.12.2018 07:00:00 - - - - - -
13.12.2018 06:00:00 - - - - - -
13.12.2018 05:00:00 - - - - - -
13.12.2018 04:00:00 - - - - - -
13.12.2018 03:00:00 - - - - - -
13.12.2018 02:00:00 - - - - - -
13.12.2018 01:00:00 - - - - - -
13.12.2018 00:00:00 - - - - - -
12.12.2018 23:00:00 - - - - - -
12.12.2018 22:00:00 - - - - - -
12.12.2018 21:00:00 - - - - - -
12.12.2018 20:00:00 4,0 3,0 0 0 N 10
12.12.2018 19:00:00 4,0 3,0 0 0 N 10
12.12.2018 18:00:00 6,0 2,0 9 5 ENE 10
12.12.2018 17:00:00 8,0 3,0 5 3 E 10
12.12.2018 16:00:00 10,0 1,0 5 3 S 10
12.12.2018 15:00:00 11,0 -1,0 0 0 N 10
12.12.2018 14:00:00 11,0 1,0 8 4 SW 10
12.12.2018 13:00:00 11,0 1,0 9 5 S 10
12.12.2018 12:00:00 11,0 3,0 5 3 SSW 10
12.12.2018 11:00:00 10,0 4,0 0 0 N 10
12.12.2018 10:00:00 8,0 3,0 4 2 - 10
12.12.2018 09:00:00 4,0 3,0 4 2 N 10
12.12.2018 08:00:00 0,0 0,0 0 0 N 10
12.12.2018 07:00:00 - - - - - -
12.12.2018 06:00:00 - - - - - -
12.12.2018 05:00:00 - - - - - -
12.12.2018 04:00:00 - - - - - -
12.12.2018 03:00:00 - - - - - -
12.12.2018 02:00:00 - - - - - -
12.12.2018 01:00:00 - - - - - -
12.12.2018 00:00:00 - - - - - -
11.12.2018 23:00:00 - - - - - -
11.12.2018 22:00:00 - - - - - -
11.12.2018 21:00:00 - - - - - -
11.12.2018 20:00:00 3,0 1,0 4 2 - 10
11.12.2018 19:00:00 5,0 1,0 0 0 N 10
11.12.2018 18:00:00 7,0 1,0 5 3 ENE 10
11.12.2018 17:00:00 6,0 1,0 9 5 NE 10
11.12.2018 16:00:00 9,0 1,0 16 9 NE 10
11.12.2018 15:00:00 12,0 0,0 15 8 N 10
11.12.2018 14:00:00 12,0 0,0 18 10 NNW 10
11.12.2018 13:00:00 12,0 0,0 21 11 NNW 10
11.12.2018 12:00:00 11,0 3,0 18 10 NNW 10
11.12.2018 11:00:00 9,0 1,0 24 13 NNW 10
11.12.2018 10:00:00 9,0 3,0 13 7 NNW 10
11.12.2018 09:00:00 8,0 2,0 28 15 NNW 10
11.12.2018 08:00:00 9,0 2,0 8 4 WNW 10
11.12.2018 07:00:00 - - - - - -
11.12.2018 06:00:00 - - - - - -
11.12.2018 05:00:00 - - - - - -
11.12.2018 04:00:00 - - - - - -
11.12.2018 03:00:00 - - - - - -
11.12.2018 02:00:00 - - - - - -
11.12.2018 01:00:00 - - - - - -
11.12.2018 00:00:00 - - - - - -
10.12.2018 23:00:00 - - - - - -
10.12.2018 22:00:00 - - - - - -
10.12.2018 21:00:00 - - - - - -
10.12.2018 20:00:00 9,0 4,0 8 4 NNE 10
10.12.2018 19:00:00 9,0 4,0 11 6 N 10
10.12.2018 18:00:00 10,0 4,0 18 10 N 10
10.12.2018 17:00:00 9,0 5,0 21 11 N 8
10.12.2018 16:00:00 10,0 5,0 29 16 N 9
10.12.2018 15:00:00 13,0 3,0 24 13 NNE 10
10.12.2018 14:00:00 15,0 3,0 24 13 N 10
10.12.2018 13:00:00 12,0 4,0 11 6 NNE 10
10.12.2018 12:00:00 12,0 4,0 28 15 NNE 10
10.12.2018 11:00:00 14,0 7,0 16 9 NNE 10
10.12.2018 10:00:00 14,0 7,0 21 11 N 10
10.12.2018 09:00:00 13,0 6,0 13 7 NW 10
10.12.2018 08:00:00 12,0 9,0 9 5 WSW 10
10.12.2018 07:00:00 - - - - - -
10.12.2018 06:00:00 - - - - - -
10.12.2018 05:00:00 - - - - - -
10.12.2018 04:00:00 - - - - - -
10.12.2018 03:00:00 - - - - - -
10.12.2018 02:00:00 - - - - - -
10.12.2018 01:00:00 - - - - - -
10.12.2018 00:00:00 - - - - - -
09.12.2018 23:00:00 - - - - - -
09.12.2018 22:00:00 - - - - - -
09.12.2018 21:00:00 - - - - - -
09.12.2018 20:00:00 9,0 8,0 5 3 N 10
09.12.2018 19:00:00 10,0 9,0 5 3 SE 10
09.12.2018 18:00:00 12,0 8,0 5 3 ESE 10
09.12.2018 17:00:00 15,0 9,0 5 3 SW 10
09.12.2018 16:00:00 16,0 6,0 11 6 S 10
09.12.2018 15:00:00 16,0 5,0 9 5 S 10
09.12.2018 14:00:00 16,0 4,0 9 5 SSW 10
09.12.2018 13:00:00 14,0 2,0 11 6 WSW 10
09.12.2018 12:00:00 14,0 0,0 11 6 WSW 10
09.12.2018 11:00:00 14,0 3,0 9 5 W 10
09.12.2018 10:00:00 12,0 5,0 9 5 W 10
09.12.2018 09:00:00 10,0 6,0 9 5 WNW 10
09.12.2018 08:00:00 7,0 5,0 0 0 N 10
09.12.2018 07:00:00 - - - - - -

tt = temperature
td = dewpoint
ff = wind speed
dd = wind direction
vv = visibility

Next stations